createdAt,value
2019-04-05T00:00:06.868Z,6.43
2019-04-05T00:01:06.868Z,6.40
2019-04-05T00:02:06.845Z,6.32
2019-04-05T00:03:06.849Z,6.38
2019-04-05T00:04:06.825Z,6.35
2019-04-05T00:05:06.812Z,6.36
2019-04-05T00:06:06.801Z,6.35
2019-04-05T00:07:06.790Z,6.38
2019-04-05T00:08:06.781Z,6.35
2019-04-05T00:09:06.780Z,6.38
2019-04-05T00:10:06.757Z,6.33
2019-04-05T00:11:06.746Z,6.32
2019-04-05T00:12:06.735Z,6.36
2019-04-05T00:13:06.724Z,6.35
2019-04-05T00:14:06.712Z,6.44
2019-04-05T00:15:14.990Z,6.44
2019-04-05T00:16:07.691Z,6.44
2019-04-05T00:17:06.680Z,6.33
2019-04-05T00:18:06.670Z,6.35
2019-04-05T00:19:06.658Z,6.29
2019-04-05T00:20:06.648Z,6.43
2019-04-05T00:21:06.649Z,6.35
2019-04-05T00:22:06.626Z,6.38
2019-04-05T00:23:06.615Z,6.38
2019-04-05T00:24:06.606Z,6.29
2019-04-05T00:25:06.593Z,6.43
2019-04-05T00:26:06.582Z,6.33
2019-04-05T00:27:06.586Z,6.41
2019-04-05T00:28:06.560Z,6.36
2019-04-05T00:29:06.552Z,6.33
2019-04-05T00:30:06.538Z,6.35
2019-04-05T00:31:06.527Z,6.33
2019-04-05T00:32:06.515Z,6.28
2019-04-05T00:33:06.515Z,6.35
2019-04-05T00:34:06.494Z,6.33
2019-04-05T00:35:06.484Z,6.32
2019-04-05T00:36:06.474Z,6.36
2019-04-05T00:37:06.461Z,6.33
2019-04-05T00:38:06.449Z,6.30
2019-04-05T00:39:06.449Z,6.36
2019-04-05T00:40:06.429Z,6.35
2019-04-05T00:41:06.418Z,6.36
2019-04-05T00:42:06.407Z,6.32
2019-04-05T00:43:06.395Z,6.29
2019-04-05T00:44:06.384Z,6.32
2019-04-05T00:45:06.383Z,6.30
2019-04-05T00:46:06.367Z,6.32
2019-04-05T00:47:06.379Z,6.26
2019-04-05T00:48:06.341Z,6.32
2019-04-05T00:49:06.330Z,6.26
2019-04-05T00:50:06.318Z,6.30
2019-04-05T00:51:06.318Z,6.29
2019-04-05T00:52:06.298Z,6.30
2019-04-05T00:53:06.291Z,6.28
2019-04-05T00:54:06.275Z,6.30
2019-04-05T00:55:06.266Z,6.30
2019-04-05T00:56:06.253Z,6.26
2019-04-05T00:57:06.253Z,6.32
2019-04-05T00:58:06.231Z,6.36
2019-04-05T00:59:06.222Z,6.22
2019-04-05T01:00:06.209Z,6.22
2019-04-05T01:01:06.198Z,6.25
2019-04-05T01:02:06.192Z,6.18
2019-04-05T01:03:06.188Z,6.22
2019-04-05T01:04:06.169Z,6.22
2019-04-05T01:05:06.165Z,6.25
2019-04-05T01:06:06.143Z,6.14
2019-04-05T01:07:06.134Z,6.29
2019-04-05T01:08:06.121Z,6.19
2019-04-05T01:09:06.142Z,6.16
2019-04-05T01:10:06.108Z,6.13
2019-04-05T01:11:06.091Z,6.18
2019-04-05T01:12:06.078Z,6.16
2019-04-05T01:13:06.069Z,6.22
2019-04-05T01:14:06.056Z,6.11
2019-04-05T01:15:06.056Z,6.16
2019-04-05T01:16:06.037Z,6.14
2019-04-05T01:17:06.024Z,6.13
2019-04-05T01:18:06.018Z,6.13
2019-04-05T01:19:06.002Z,6.14
2019-04-05T01:20:05.990Z,6.18
2019-04-05T01:21:05.999Z,6.14
2019-04-05T01:22:05.969Z,6.14
2019-04-05T01:23:05.961Z,6.13
2019-04-05T01:24:05.950Z,6.19
2019-04-05T01:25:05.936Z,6.14
2019-04-05T01:26:05.928Z,6.19
2019-04-05T01:27:05.924Z,6.14
2019-04-05T01:28:05.905Z,6.14
2019-04-05T01:29:05.892Z,6.21
2019-04-05T01:30:05.882Z,6.16
2019-04-05T01:31:05.871Z,6.16
2019-04-05T01:32:05.860Z,6.19
2019-04-05T01:33:05.862Z,6.19
2019-04-05T01:34:05.886Z,6.09
2019-04-05T01:35:05.827Z,6.21
2019-04-05T01:36:05.817Z,6.18
2019-04-05T01:37:05.808Z,6.16
2019-04-05T01:38:05.794Z,6.21
2019-04-05T01:39:05.795Z,6.16
2019-04-05T01:40:05.773Z,6.18
2019-04-05T01:41:05.762Z,6.30
2019-04-05T01:42:05.751Z,6.25
2019-04-05T01:43:05.740Z,6.29
2019-04-05T01:44:05.728Z,6.25
2019-04-05T01:45:05.731Z,6.25
2019-04-05T01:46:05.708Z,6.26
2019-04-05T01:47:05.701Z,6.28
2019-04-05T01:48:05.685Z,6.26
2019-04-05T01:49:05.674Z,6.29
2019-04-05T01:50:05.662Z,6.19
2019-04-05T01:51:05.672Z,6.29
2019-04-05T01:52:05.647Z,6.22
2019-04-05T01:53:05.630Z,6.26
2019-04-05T01:54:05.618Z,6.22
2019-04-05T01:55:05.638Z,6.25
2019-04-05T01:56:05.599Z,6.26
2019-04-05T01:57:05.596Z,6.30
2019-04-05T01:58:05.580Z,6.26
2019-04-05T01:59:05.564Z,6.29
2019-04-05T02:00:05.554Z,6.25
2019-04-05T02:01:05.543Z,6.19
2019-04-05T02:02:05.532Z,6.14
2019-04-05T02:03:05.531Z,6.16
2019-04-05T02:04:05.509Z,6.14
2019-04-05T02:05:05.507Z,6.11
2019-04-05T02:06:05.487Z,6.10
2019-04-05T02:07:05.476Z,6.14
2019-04-05T02:08:05.465Z,6.13
2019-04-05T02:09:05.472Z,6.13
2019-04-05T02:10:05.443Z,6.16
2019-04-05T02:11:05.433Z,6.25
2019-04-05T02:12:05.421Z,6.14
2019-04-05T02:13:05.414Z,6.06
2019-04-05T02:14:05.399Z,6.04
2019-04-05T02:15:05.407Z,6.06
2019-04-05T02:16:06.854Z,6.06
2019-04-05T02:17:05.367Z,6.10
2019-04-05T02:18:05.357Z,6.09
2019-04-05T02:19:05.346Z,6.10
2019-04-05T02:20:05.339Z,6.07
2019-04-05T02:21:05.334Z,6.04
2019-04-05T02:22:05.313Z,6.06
2019-04-05T02:23:05.305Z,6.09
2019-04-05T02:24:05.296Z,6.09
2019-04-05T02:25:05.282Z,6.09
2019-04-05T02:26:05.272Z,6.11
2019-04-05T02:27:05.270Z,6.09
2019-04-05T02:28:05.250Z,6.10
2019-04-05T02:29:05.236Z,6.10
2019-04-05T02:30:05.236Z,6.07
2019-04-05T02:31:05.215Z,6.09
2019-04-05T02:32:05.205Z,6.00
2019-04-05T02:33:05.203Z,6.01
2019-04-05T02:34:05.194Z,6.06
2019-04-05T02:35:05.174Z,6.03
2019-04-05T02:36:05.163Z,6.03
2019-04-05T02:37:05.151Z,6.09
2019-04-05T02:38:05.139Z,6.03
2019-04-05T02:39:05.143Z,6.04
2019-04-05T02:40:05.119Z,6.04
2019-04-05T02:41:05.107Z,5.95
2019-04-05T02:42:05.110Z,6.00
2019-04-05T02:43:05.090Z,5.98
2019-04-05T02:44:05.090Z,5.98
2019-04-05T02:45:05.096Z,6.07
2019-04-05T02:46:05.160Z,5.98
2019-04-05T02:47:05.048Z,6.01
2019-04-05T02:48:05.037Z,6.03
2019-04-05T02:49:05.028Z,6.11
2019-04-05T02:50:05.012Z,6.07
2019-04-05T02:51:05.021Z,6.01
2019-04-05T02:52:04.982Z,6.04
2019-04-05T02:53:04.984Z,6.00
2019-04-05T02:54:04.969Z,5.98
2019-04-05T02:55:04.954Z,6.06
2019-04-05T02:56:04.939Z,6.00
2019-04-05T02:57:04.959Z,5.96
2019-04-05T02:58:04.974Z,6.06
2019-04-05T02:59:04.907Z,6.04
2019-04-05T03:00:04.902Z,6.00
2019-04-05T03:01:04.886Z,6.01
2019-04-05T03:02:04.874Z,6.09
2019-04-05T03:03:04.876Z,6.14
2019-04-05T03:04:04.864Z,6.09
2019-04-05T03:05:04.843Z,6.16
2019-04-05T03:06:04.834Z,6.10
2019-04-05T03:07:04.826Z,6.13
2019-04-05T03:08:04.827Z,6.07
2019-04-05T03:09:04.811Z,6.10
2019-04-05T03:10:04.795Z,6.19
2019-04-05T03:11:04.917Z,6.14
2019-04-05T03:12:04.772Z,6.10
2019-04-05T03:13:04.767Z,6.07
2019-04-05T03:14:04.755Z,6.13
2019-04-05T03:15:04.749Z,6.10
2019-04-05T03:16:04.728Z,6.18
2019-04-05T03:17:04.721Z,6.06
2019-04-05T03:18:04.704Z,6.18
2019-04-05T03:19:04.696Z,6.09
2019-04-05T03:20:04.686Z,6.13
2019-04-05T03:21:04.685Z,6.16
2019-04-05T03:22:04.666Z,6.22
2019-04-05T03:23:04.654Z,6.18
2019-04-05T03:24:04.639Z,6.19
2019-04-05T03:25:04.630Z,6.11
2019-04-05T03:26:04.624Z,6.09
2019-04-05T03:27:04.617Z,6.04
2019-04-05T03:28:04.594Z,6.07
2019-04-05T03:29:04.607Z,6.09
2019-04-05T03:30:04.611Z,6.01
2019-04-05T03:31:04.581Z,6.03
2019-04-05T03:32:04.597Z,6.06
2019-04-05T03:33:04.614Z,6.04
2019-04-05T03:34:04.531Z,6.00
2019-04-05T03:35:04.537Z,6.01
2019-04-05T03:36:04.509Z,6.07
2019-04-05T03:37:04.499Z,6.07
2019-04-05T03:38:04.486Z,6.03
2019-04-05T03:39:04.532Z,5.96
2019-04-05T03:40:04.465Z,6.07
2019-04-05T03:41:04.559Z,6.06
2019-04-05T03:42:04.443Z,6.01
2019-04-05T03:43:04.434Z,6.09
2019-04-05T03:44:04.421Z,6.03
2019-04-05T03:45:04.422Z,5.98
2019-04-05T03:46:04.423Z,6.09
2019-04-05T03:47:04.394Z,5.92
2019-04-05T03:48:04.380Z,5.88
2019-04-05T03:49:04.372Z,5.96
2019-04-05T03:50:04.360Z,5.93
2019-04-05T03:51:04.358Z,5.92
2019-04-05T03:52:04.337Z,5.98
2019-04-05T03:53:04.327Z,5.96
2019-04-05T03:54:04.316Z,5.91
2019-04-05T03:55:04.311Z,5.88
2019-04-05T03:56:04.302Z,5.96
2019-04-05T03:57:04.296Z,6.04
2019-04-05T03:58:04.272Z,5.96
2019-04-05T03:59:04.265Z,5.91
2019-04-05T04:00:04.262Z,6.00
2019-04-05T04:01:04.244Z,5.93
2019-04-05T04:02:04.232Z,5.96
2019-04-05T04:03:04.232Z,5.92
2019-04-05T04:04:04.210Z,5.93
2019-04-05T04:05:04.219Z,5.92
2019-04-05T04:06:04.217Z,5.93
2019-04-05T04:07:04.179Z,5.96
2019-04-05T04:08:04.168Z,5.96
2019-04-05T04:09:04.169Z,5.96
2019-04-05T04:10:04.146Z,5.91
2019-04-05T04:11:04.136Z,5.95
2019-04-05T04:12:04.128Z,5.96
2019-04-05T04:13:04.116Z,5.98
2019-04-05T04:14:04.106Z,5.88
2019-04-05T04:15:04.112Z,6.01
2019-04-05T04:16:04.201Z,5.89
2019-04-05T04:17:11.989Z,5.98
2019-04-05T04:18:05.062Z,5.92
2019-04-05T04:19:04.051Z,5.95
2019-04-05T04:20:04.044Z,5.93
2019-04-05T04:21:04.046Z,5.98
2019-04-05T04:22:04.026Z,6.00
2019-04-05T04:23:04.011Z,5.93
2019-04-05T04:24:04.001Z,5.96
2019-04-05T04:25:03.993Z,6.03
2019-04-05T04:26:03.979Z,5.96
2019-04-05T04:27:03.977Z,5.96
2019-04-05T04:28:03.955Z,5.95
2019-04-05T04:29:03.947Z,6.06
2019-04-05T04:30:03.933Z,6.03
2019-04-05T04:31:03.922Z,6.01
2019-04-05T04:32:03.914Z,5.95
2019-04-05T04:33:03.912Z,6.01
2019-04-05T04:34:03.890Z,6.03
2019-04-05T04:35:03.888Z,6.06
2019-04-05T04:36:03.873Z,5.96
2019-04-05T04:37:03.859Z,5.95
2019-04-05T04:38:03.849Z,5.96
2019-04-05T04:39:03.847Z,5.88
2019-04-05T04:40:03.826Z,5.95
2019-04-05T04:41:03.818Z,5.93
2019-04-05T04:42:03.811Z,5.92
2019-04-05T04:43:03.795Z,5.93
2019-04-05T04:44:03.785Z,5.93
2019-04-05T04:45:11.954Z,5.89
2019-04-05T04:46:04.763Z,5.92
2019-04-05T04:47:03.765Z,5.88
2019-04-05T04:48:03.743Z,5.89
2019-04-05T04:49:03.732Z,5.95
2019-04-05T04:50:03.728Z,5.95
2019-04-05T04:51:03.719Z,5.88
2019-04-05T04:52:03.698Z,5.91
2019-04-05T04:53:03.694Z,5.86
2019-04-05T04:54:03.678Z,6.00
2019-04-05T04:55:03.665Z,5.89
2019-04-05T04:56:03.655Z,5.95
2019-04-05T04:57:03.659Z,5.95
2019-04-05T04:58:03.633Z,5.98
2019-04-05T04:59:03.623Z,5.95
2019-04-05T05:00:03.614Z,5.95
2019-04-05T05:01:03.602Z,6.00
2019-04-05T05:02:03.591Z,6.01
2019-04-05T05:03:03.591Z,5.96
2019-04-05T05:04:03.573Z,5.93
2019-04-05T05:05:03.563Z,5.98
2019-04-05T05:06:03.549Z,5.98
2019-04-05T05:07:03.537Z,5.91
2019-04-05T05:08:03.538Z,6.06
2019-04-05T05:09:03.530Z,6.04
2019-04-05T05:10:03.657Z,6.06
2019-04-05T05:11:13.851Z,5.96
2019-04-05T05:12:04.484Z,6.00
2019-04-05T05:13:03.473Z,5.96
2019-04-05T05:14:03.463Z,6.06
2019-04-05T05:15:03.461Z,5.96
2019-04-05T05:16:03.442Z,5.93
2019-04-05T05:17:03.430Z,6.01
2019-04-05T05:18:03.422Z,6.06
2019-04-05T05:19:03.407Z,5.98
2019-04-05T05:20:03.396Z,6.00
2019-04-05T05:21:03.405Z,5.93
2019-04-05T05:22:03.375Z,5.98
2019-04-05T05:23:03.422Z,5.95
2019-04-05T05:24:03.356Z,5.98
2019-04-05T05:25:03.343Z,6.09
2019-04-05T05:26:03.332Z,6.07
2019-04-05T05:27:03.331Z,6.03
2019-04-05T05:28:03.319Z,5.98
2019-04-05T05:29:03.299Z,6.00
2019-04-05T05:30:03.289Z,6.00
2019-04-05T05:31:03.277Z,6.01
2019-04-05T05:32:03.266Z,5.98
2019-04-05T05:33:03.276Z,5.95
2019-04-05T05:34:03.244Z,5.95
2019-04-05T05:35:03.241Z,5.96
2019-04-05T05:36:03.223Z,6.03
2019-04-05T05:37:03.212Z,6.07
2019-04-05T05:38:03.200Z,6.04
2019-04-05T05:39:03.202Z,6.09
2019-04-05T05:40:03.179Z,6.00
2019-04-05T05:41:03.244Z,6.03
2019-04-05T05:42:03.162Z,6.03
2019-04-05T05:43:03.149Z,6.06
2019-04-05T05:44:03.136Z,6.03
2019-04-05T05:45:03.134Z,5.98
2019-04-05T05:46:03.115Z,5.95
2019-04-05T05:47:03.102Z,6.10
2019-04-05T05:48:03.092Z,6.04
2019-04-05T05:49:03.085Z,6.11
2019-04-05T05:50:03.072Z,6.00
2019-04-05T05:51:03.068Z,6.07
2019-04-05T05:52:03.047Z,6.06
2019-04-05T05:53:03.036Z,6.09
2019-04-05T05:54:03.027Z,6.10
2019-04-05T05:55:03.015Z,6.06
2019-04-05T05:56:03.004Z,6.16
2019-04-05T05:57:03.003Z,6.14
2019-04-05T05:58:02.987Z,6.16
2019-04-05T05:59:02.972Z,6.09
2019-04-05T06:00:02.961Z,6.13
2019-04-05T06:01:02.953Z,6.14
2019-04-05T06:02:02.950Z,6.13
2019-04-05T06:03:06.006Z,6.14
2019-04-05T06:04:02.916Z,6.07
2019-04-05T06:05:02.906Z,6.13
2019-04-05T06:06:04.682Z,6.16
2019-04-05T06:07:02.887Z,6.16
2019-04-05T06:08:02.874Z,6.21
2019-04-05T06:09:02.880Z,6.22
2019-04-05T06:10:02.907Z,6.21
2019-04-05T06:11:02.841Z,6.33
2019-04-05T06:12:02.829Z,6.35
2019-04-05T06:13:06.823Z,6.30
2019-04-05T06:14:02.809Z,6.35
2019-04-05T06:15:02.810Z,6.33
2019-04-05T06:16:02.787Z,6.35
2019-04-05T06:17:02.774Z,6.21
2019-04-05T06:19:03.753Z,6.29
2019-04-05T06:20:02.756Z,6.33
2019-04-05T06:22:03.716Z,6.33
2019-04-05T06:23:02.709Z,6.33
2019-04-05T06:24:05.282Z,6.33
2019-04-05T06:25:02.691Z,6.38
2019-04-05T06:26:02.676Z,6.43
2019-04-05T06:27:02.683Z,6.40
2019-04-05T06:28:02.654Z,6.41
2019-04-05T06:29:02.643Z,6.46
2019-04-05T06:30:02.634Z,6.47
2019-04-05T06:31:02.621Z,6.40
2019-04-05T06:32:02.615Z,6.46
2019-04-05T06:33:02.620Z,6.46
2019-04-05T06:34:02.589Z,6.46
2019-04-05T06:35:02.578Z,6.44
2019-04-05T06:35:39.524Z,6.35
2019-04-05T06:35:39.524Z,6.25
2019-04-05T06:36:02.568Z,6.46
2019-04-05T06:37:02.557Z,6.46
2019-04-05T06:38:02.545Z,6.41
2019-04-05T06:39:02.548Z,6.44
2019-04-05T06:40:02.523Z,6.33
2019-04-05T06:41:02.514Z,6.44
2019-04-05T06:42:02.500Z,6.44
2019-04-05T06:43:02.518Z,6.40
2019-04-05T06:44:02.483Z,6.50
2019-04-05T06:45:02.481Z,6.50
2019-04-05T06:46:02.548Z,6.40
2019-04-05T06:47:02.454Z,6.38
2019-04-05T06:48:02.435Z,6.38
2019-04-05T06:49:02.426Z,6.38
2019-04-05T06:50:02.424Z,6.38
2019-04-05T06:51:02.414Z,6.38
2019-04-05T06:52:02.391Z,6.44
2019-04-05T06:53:02.380Z,6.44
2019-04-05T06:54:03.474Z,6.51
2019-04-05T06:55:02.361Z,6.46
2019-04-05T06:56:02.349Z,6.48
2019-04-05T06:57:02.356Z,6.59
2019-04-05T06:58:02.326Z,6.59
2019-04-05T06:59:02.315Z,6.58
2019-04-05T07:00:02.304Z,6.68
2019-04-05T07:01:02.293Z,6.71
2019-04-05T07:02:02.283Z,6.73
2019-04-05T07:03:02.284Z,6.76
2019-04-05T07:04:02.269Z,6.84
2019-04-05T07:05:02.259Z,6.73
2019-04-05T07:06:02.243Z,6.79
2019-04-05T07:07:02.243Z,6.84
2019-04-05T07:08:02.218Z,6.76
2019-04-05T07:09:02.220Z,6.83
2019-04-05T07:10:02.199Z,6.79
2019-04-05T07:11:02.187Z,6.86
2019-04-05T07:12:02.176Z,6.79
2019-04-05T07:13:02.305Z,6.83
2019-04-05T07:14:02.161Z,6.84
2019-04-05T07:15:02.158Z,6.80
2019-04-05T07:16:02.133Z,6.80
2019-04-05T07:17:02.122Z,7.02
2019-04-05T07:18:02.111Z,6.95
2019-04-05T07:19:02.102Z,6.99
2019-04-05T07:20:02.093Z,7.05
2019-04-05T07:21:02.089Z,7.04
2019-04-05T07:22:02.069Z,7.07
2019-04-05T07:23:02.057Z,7.01
2019-04-05T07:24:02.047Z,6.97
2019-04-05T07:25:02.035Z,6.90
2019-04-05T07:26:02.032Z,6.87
2019-04-05T07:27:02.024Z,6.84
2019-04-05T07:28:02.003Z,6.68
2019-04-05T07:29:01.992Z,6.58
2019-04-05T07:30:01.985Z,6.59
2019-04-05T07:31:01.970Z,6.54
2019-04-05T07:32:01.964Z,6.63
2019-04-05T07:33:01.975Z,6.63
2019-04-05T07:34:01.945Z,6.48
2019-04-05T07:35:01.928Z,6.51
2019-04-05T07:36:03.446Z,6.40
2019-04-05T07:37:01.909Z,6.50
2019-04-05T07:38:01.896Z,6.61
2019-04-05T07:39:01.903Z,6.65
2019-04-05T07:40:01.874Z,6.59
2019-04-05T07:41:01.868Z,6.61
2019-04-05T07:42:01.855Z,6.59
2019-04-05T07:43:01.843Z,6.62
2019-04-05T07:44:01.835Z,6.66
2019-04-05T07:45:01.833Z,6.72
2019-04-05T07:46:01.812Z,6.81
2019-04-05T07:47:01.801Z,6.77
2019-04-05T07:48:01.864Z,6.80
2019-04-05T07:49:01.779Z,6.71
2019-04-05T07:50:01.769Z,6.77
2019-04-05T07:51:01.776Z,6.77
2019-04-05T07:52:01.748Z,6.83
2019-04-05T07:53:01.736Z,6.83
2019-04-05T07:54:01.726Z,6.86
2019-04-05T07:55:01.725Z,6.80
2019-04-05T07:56:01.705Z,6.80
2019-04-05T07:57:01.715Z,6.79
2019-04-05T07:58:01.683Z,6.83
2019-04-05T07:59:01.675Z,6.94
2019-04-05T08:00:01.661Z,6.94
2019-04-05T08:01:01.652Z,7.01
2019-04-05T08:02:01.643Z,7.07
2019-04-05T08:03:01.639Z,7.20
2019-04-05T08:04:01.619Z,7.17
2019-04-05T08:05:01.609Z,7.15
2019-04-05T08:06:01.598Z,7.15
2019-04-05T08:07:01.594Z,7.24
2019-04-05T08:08:01.575Z,7.38
2019-04-05T08:09:02.329Z,7.44
2019-04-05T08:10:03.187Z,7.49
2019-04-05T08:11:01.543Z,7.62
2019-04-05T08:12:01.535Z,7.72
2019-04-05T08:13:01.521Z,7.87
2019-04-05T08:14:01.510Z,7.92
2019-04-05T08:15:01.521Z,7.93
2019-04-05T08:16:01.543Z,7.71
2019-04-05T08:17:01.477Z,7.67
2019-04-05T08:18:01.465Z,7.69
2019-04-05T08:19:01.457Z,7.72
2019-04-05T08:20:01.446Z,7.93
2019-04-05T08:21:01.446Z,8.11
2019-04-05T08:22:01.422Z,8.14
2019-04-05T08:23:01.414Z,8.22
2019-04-05T08:24:01.401Z,8.39
2019-04-05T08:25:01.390Z,8.40
2019-04-05T08:26:01.378Z,8.40
2019-04-05T08:27:01.387Z,8.45
2019-04-05T08:28:01.357Z,8.48
2019-04-05T08:29:01.345Z,8.29
2019-04-05T08:30:01.335Z,8.11
2019-04-05T08:31:01.324Z,7.96
2019-04-05T08:32:13.631Z,7.99
2019-04-05T08:33:02.313Z,7.97
2019-04-05T08:34:01.291Z,8.03
2019-04-05T08:35:01.282Z,8.10
2019-04-05T08:36:01.268Z,8.14
2019-04-05T08:37:01.260Z,8.26
2019-04-05T08:38:01.246Z,8.28
2019-04-05T08:39:01.249Z,8.26
2019-04-05T08:40:01.232Z,8.22
2019-04-05T08:41:01.215Z,8.17
2019-04-05T08:42:01.203Z,7.99
2019-04-05T08:43:01.192Z,7.81
2019-04-05T08:44:01.188Z,7.62
2019-04-05T08:45:01.183Z,7.55
2019-04-05T08:46:01.160Z,7.37
2019-04-05T08:47:01.149Z,7.26
2019-04-05T08:48:01.138Z,7.24
2019-04-05T08:49:10.466Z,7.23
2019-04-05T08:50:02.136Z,7.27
2019-04-05T08:51:01.104Z,7.34
2019-04-05T08:52:01.099Z,7.29
2019-04-05T08:53:01.083Z,7.32
2019-04-05T08:54:01.077Z,7.34
2019-04-05T08:55:01.061Z,7.45
2019-04-05T08:56:01.062Z,7.35
2019-04-05T08:57:01.040Z,7.40
2019-04-05T08:58:01.042Z,7.35
2019-04-05T08:59:01.020Z,7.32
2019-04-05T09:00:01.049Z,7.38
2019-04-05T09:01:00.999Z,7.42
2019-04-05T09:02:01.000Z,7.49
2019-04-05T09:03:00.977Z,7.56
2019-04-05T09:04:00.966Z,7.72
2019-04-05T09:05:00.955Z,7.50
2019-04-05T09:06:00.943Z,7.37
2019-04-05T09:07:00.933Z,7.38
2019-04-05T09:08:00.936Z,7.41
2019-04-05T09:09:00.915Z,7.42
2019-04-05T09:10:00.901Z,7.42
2019-04-05T09:11:00.892Z,7.40
2019-04-05T09:12:00.879Z,7.32
2019-04-05T09:13:00.869Z,7.34
2019-04-05T09:14:00.872Z,7.41
2019-04-05T09:15:00.849Z,7.41
2019-04-05T09:16:00.836Z,7.59
2019-04-05T09:17:00.825Z,7.50
2019-04-05T09:18:00.814Z,7.56
2019-04-05T09:19:00.802Z,7.55
2019-04-05T09:20:00.899Z,7.52
2019-04-05T09:21:00.780Z,7.53
2019-04-05T09:22:00.769Z,7.62
2019-04-05T09:23:00.760Z,7.47
2019-04-05T09:24:00.747Z,7.41
2019-04-05T09:25:00.737Z,7.44
2019-04-05T09:26:00.740Z,7.44
2019-04-05T09:27:00.715Z,7.42
2019-04-05T09:28:00.703Z,7.35
2019-04-05T09:29:00.693Z,7.40
2019-04-05T09:30:00.681Z,7.34
2019-04-05T09:31:00.671Z,7.37
2019-04-05T09:32:00.673Z,7.47
2019-04-05T09:33:00.648Z,7.40
2019-04-05T09:34:00.638Z,7.44
2019-04-05T09:35:00.627Z,7.38
2019-04-05T09:36:00.615Z,7.49
2019-04-05T09:37:00.604Z,7.58
2019-04-05T09:38:00.604Z,7.52
2019-04-05T09:39:00.583Z,7.50
2019-04-05T09:40:00.572Z,7.35
2019-04-05T09:41:00.562Z,7.41
2019-04-05T09:42:00.550Z,7.38
2019-04-05T09:43:00.540Z,7.37
2019-04-05T09:44:00.562Z,7.35
2019-04-05T09:45:00.518Z,7.49
2019-04-05T09:46:00.506Z,7.58
2019-04-05T09:47:00.506Z,7.52
2019-04-05T09:48:00.489Z,7.67
2019-04-05T09:49:00.474Z,7.62
2019-04-05T09:50:00.474Z,7.62
2019-04-05T09:51:00.538Z,7.59
2019-04-05T09:52:00.441Z,7.63
2019-04-05T09:53:00.429Z,7.63
2019-04-05T09:54:00.422Z,7.63
2019-04-05T09:55:00.409Z,7.62
2019-04-05T09:56:00.407Z,7.75
2019-04-05T09:57:00.387Z,7.82
2019-04-05T09:58:00.375Z,7.92
2019-04-05T09:59:00.364Z,7.92
2019-04-05T10:00:00.354Z,7.89
2019-04-05T10:01:00.342Z,7.94
2019-04-05T10:02:00.348Z,7.85
2019-04-05T10:03:00.343Z,7.87
2019-04-05T10:04:00.319Z,7.90
2019-04-05T10:05:00.312Z,7.75
2019-04-05T10:06:00.298Z,7.67
2019-04-05T10:07:00.285Z,7.63
2019-04-05T10:08:00.289Z,7.69
2019-04-05T10:09:00.257Z,7.60
2019-04-05T10:10:00.251Z,7.53
2019-04-05T10:11:00.237Z,7.77
2019-04-05T10:12:00.225Z,7.75
2019-04-05T10:13:00.220Z,7.82
2019-04-05T10:14:00.213Z,7.85
2019-04-05T10:15:00.192Z,7.90
2019-04-05T10:16:00.184Z,7.87
2019-04-05T10:17:00.170Z,7.85
2019-04-05T10:18:00.160Z,7.84
2019-04-05T10:19:00.153Z,7.75
2019-04-05T10:20:00.153Z,7.82
2019-04-05T10:21:00.127Z,7.69
2019-04-05T10:22:00.115Z,7.75
2019-04-05T10:23:00.105Z,7.81
2019-04-05T10:24:00.095Z,7.85
2019-04-05T10:25:00.084Z,7.93
2019-04-05T10:26:00.084Z,7.93
2019-04-05T10:27:00.063Z,7.96
2019-04-05T10:28:00.061Z,7.87
2019-04-05T10:29:00.047Z,7.75
2019-04-05T10:30:00.035Z,7.69
2019-04-05T10:31:00.021Z,7.77
2019-04-05T10:32:00.031Z,7.78
2019-04-05T10:32:59.999Z,7.77
2019-04-05T10:33:59.991Z,7.81
2019-04-05T10:34:59.978Z,7.90
2019-04-05T10:35:59.967Z,7.90
2019-04-05T10:36:59.957Z,7.89
2019-04-05T10:37:59.957Z,7.87
2019-04-05T10:38:59.935Z,7.85
2019-04-05T10:39:59.924Z,7.93
2019-04-05T10:40:59.913Z,7.99
2019-04-05T10:42:03.681Z,7.97
2019-04-05T10:42:59.894Z,8.03
2019-04-05T10:43:59.892Z,8.03
2019-04-05T10:44:59.874Z,8.08
2019-04-05T10:45:59.868Z,8.18
2019-04-05T10:46:59.850Z,8.15
2019-04-05T10:47:59.840Z,8.12
2019-04-05T10:48:59.829Z,8.08
2019-04-05T10:50:03.336Z,7.99
2019-04-05T10:50:59.809Z,7.87
2019-04-05T10:51:59.797Z,7.90
2019-04-05T10:52:59.786Z,7.89
2019-04-05T10:53:59.777Z,7.82
2019-04-05T10:54:59.775Z,7.87
2019-04-05T10:55:59.764Z,7.82
2019-04-05T10:56:59.744Z,7.81
2019-04-05T10:57:59.733Z,7.72
2019-04-05T10:58:59.724Z,7.62
2019-04-05T10:59:59.711Z,7.79
2019-04-05T11:00:59.703Z,7.84
2019-04-05T11:01:59.704Z,7.84
2019-04-05T11:02:59.680Z,7.94
2019-04-05T11:03:59.668Z,7.97
2019-04-05T11:04:59.659Z,8.08
2019-04-05T11:05:59.647Z,8.11
2019-04-05T11:06:59.636Z,8.04
2019-04-05T11:07:59.642Z,7.82
2019-04-05T11:08:59.615Z,7.85
2019-04-05T11:09:59.604Z,7.78
2019-04-05T11:10:59.604Z,7.92
2019-04-05T11:11:59.583Z,7.99
2019-04-05T11:12:59.575Z,8.03
2019-04-05T11:13:59.574Z,7.94
2019-04-05T11:14:59.551Z,8.08
2019-04-05T11:15:59.540Z,8.11
2019-04-05T11:16:59.532Z,8.08
2019-04-05T11:17:59.520Z,8.11
2019-04-05T11:19:01.878Z,8.17
2019-04-05T11:19:59.512Z,8.11
2019-04-05T11:20:59.486Z,8.15
2019-04-05T11:21:59.476Z,8.15
2019-04-05T11:22:59.463Z,7.99
2019-04-05T11:23:59.453Z,7.92
2019-04-05T11:24:59.443Z,8.02
2019-04-05T11:25:59.455Z,7.96
2019-04-05T11:26:59.423Z,7.94
2019-04-05T11:27:59.416Z,7.94
2019-04-05T11:28:59.424Z,8.03
2019-04-05T11:29:59.395Z,7.97
2019-04-05T11:30:59.379Z,8.04
2019-04-05T11:31:59.379Z,8.08
2019-04-05T11:32:59.362Z,8.12
2019-04-05T11:33:59.347Z,8.15
2019-04-05T11:34:59.336Z,8.14
2019-04-05T11:35:59.329Z,8.10
2019-04-05T11:36:59.314Z,8.26
2019-04-05T11:37:59.314Z,8.35
2019-04-05T11:38:59.293Z,8.40
2019-04-05T11:39:59.283Z,8.36
2019-04-05T11:40:59.272Z,8.42
2019-04-05T11:41:59.263Z,8.45
2019-04-05T11:42:59.250Z,8.35
2019-04-05T11:44:00.720Z,8.26
2019-04-05T11:44:59.229Z,8.18
2019-04-05T11:45:59.219Z,8.11
2019-04-05T11:46:59.212Z,8.11
2019-04-05T11:47:59.197Z,8.08
2019-04-05T11:48:59.191Z,8.07
2019-04-05T11:49:59.190Z,8.15
2019-04-05T11:50:59.165Z,8.12
2019-04-05T11:51:59.154Z,8.04
2019-04-05T11:52:59.146Z,8.07
2019-04-05T11:53:59.133Z,8.11
2019-04-05T11:54:59.122Z,8.10
2019-04-05T11:55:59.123Z,8.12
2019-04-05T11:56:59.100Z,8.11
2019-04-05T11:57:59.090Z,7.99
2019-04-05T11:58:59.079Z,7.97
2019-04-05T11:59:59.069Z,7.94
2019-04-05T12:00:59.058Z,8.02
2019-04-05T12:01:59.079Z,7.94
2019-04-05T12:02:59.038Z,7.97
2019-04-05T12:03:59.026Z,8.03
2019-04-05T12:04:59.016Z,8.08
2019-04-05T12:05:59.005Z,8.10
2019-04-05T12:06:59.007Z,8.08
2019-04-05T12:08:01.797Z,8.12
2019-04-05T12:08:59.301Z,8.11
2019-04-05T12:09:58.962Z,8.07
2019-04-05T12:10:58.952Z,8.08
2019-04-05T12:11:58.941Z,7.94
2019-04-05T12:12:58.933Z,7.94
2019-04-05T12:13:58.933Z,7.87
2019-04-05T12:14:58.924Z,7.94
2019-04-05T12:15:58.974Z,8.00
2019-04-05T12:16:58.888Z,7.99
2019-04-05T12:17:58.877Z,8.04
2019-04-05T12:18:59.072Z,8.11
2019-04-05T12:20:00.615Z,8.07
2019-04-05T12:21:00.562Z,8.04
2019-04-05T12:21:58.834Z,8.10
2019-04-05T12:22:58.823Z,8.04
2019-04-05T12:24:00.528Z,8.11
2019-04-05T12:25:02.515Z,8.02
2019-04-05T12:25:58.804Z,8.03
2019-04-05T12:26:58.780Z,8.08
2019-04-05T12:28:06.285Z,8.11
2019-04-05T12:28:59.760Z,8.15
2019-04-05T12:29:58.748Z,8.11
2019-04-05T12:30:58.736Z,8.14
2019-04-05T12:31:58.737Z,8.14
2019-04-05T12:32:58.715Z,8.08
2019-04-05T12:33:58.704Z,8.15
2019-04-05T12:34:58.695Z,8.11
2019-04-05T12:35:58.685Z,8.11
2019-04-05T12:36:58.672Z,8.10
2019-04-05T12:37:58.675Z,8.02
2019-04-05T12:38:58.650Z,8.02
2019-04-05T12:39:58.641Z,8.00
2019-04-05T12:40:58.631Z,8.02
2019-04-05T12:41:58.617Z,7.90
2019-04-05T12:42:58.606Z,7.93
2019-04-05T12:43:58.608Z,7.96
2019-04-05T12:44:58.594Z,7.96
2019-04-05T12:45:58.575Z,7.96
2019-04-05T12:46:58.564Z,7.93
2019-04-05T12:47:59.266Z,7.90
2019-04-05T12:48:58.543Z,7.92
2019-04-05T12:49:58.539Z,7.94
2019-04-05T12:51:01.356Z,7.81
2019-04-05T12:51:58.510Z,7.89
2019-04-05T12:52:58.506Z,7.84
2019-04-05T12:53:58.486Z,7.89
2019-04-05T12:54:58.474Z,7.93
2019-04-05T12:55:58.475Z,8.00
2019-04-05T12:56:58.613Z,7.96
2019-04-05T12:57:58.442Z,8.00
2019-04-05T12:58:58.432Z,8.08
2019-04-05T12:59:58.419Z,7.94
2019-04-05T13:00:58.411Z,8.02
2019-04-05T13:01:59.751Z,7.96
2019-04-05T13:02:58.389Z,7.97
2019-04-05T13:03:58.759Z,8.07
2019-04-05T13:04:58.365Z,8.11
2019-04-05T13:05:58.354Z,8.04
2019-04-05T13:06:58.342Z,8.11
2019-04-05T13:07:58.342Z,8.08
2019-04-05T13:08:58.323Z,7.94
2019-04-05T13:09:58.310Z,7.90
2019-04-05T13:10:58.300Z,7.92
2019-04-05T13:11:58.290Z,7.93
2019-04-05T13:12:58.277Z,7.74
2019-04-05T13:13:58.280Z,7.81
2019-04-05T13:15:11.326Z,7.84
2019-04-05T13:15:59.627Z,7.82
2019-04-05T13:17:01.750Z,7.75
2019-04-05T13:18:00.315Z,7.72